Time;durP1;ratioP1;P1;durP2;ratioP2;P2;SDS_P1;SDS_P2;PMS_P1;PMS_P2;Temp;Humidity;BMP_temperature;BMP_pressure;BME280_temperature;BME280_humidity;BME280_pressure;Samples;Min_cycle;Max_cycle;Signal;HPM_P1;HPM_P2
2022/01/19 00:01:35;;;;;;;56.40;25.75;;;;;;;;;;4957285;28;20443;-75
2022/01/19 00:04:01;;;;;;;57.13;26.37;;;;;;;;;;4910064;29;20509;-74
2022/01/19 00:06:27;;;;;;;49.70;23.65;;;;;;;;;;4941192;29;20430;-75
2022/01/19 00:08:53;;;;;;;46.55;23.25;;;;;;;;;;4935152;29;20848;-75
2022/01/19 00:11:20;;;;;;;51.13;24.25;;;4.60;99.90;;;;;;4925801;29;20431;-74
2022/01/19 00:13:46;;;;;;;51.15;24.95;;;;;;;;;;4941478;29;20438;-75
2022/01/19 00:16:12;;;;;;;52.67;26.60;;;;;;;;;;4917597;29;20421;-75
2022/01/19 00:18:38;;;;;;;54.28;27.58;;;;;;;;;;4917382;29;20431;-75
2022/01/19 00:21:05;;;;;;;56.25;26.92;;;;;;;;;;4933803;29;20431;-75
2022/01/19 00:23:31;;;;;;;54.63;26.43;;;;;;;;;;4916560;29;20619;-75
2022/01/19 00:25:57;;;;;;;57.75;28.17;;;;;;;;;;4941197;29;20442;-75
2022/01/19 00:28:24;;;;;;;55.17;28.40;;;;;;;;;;4920382;29;20457;-75
2022/01/19 00:30:50;;;;;;;52.80;25.87;;;;;;;;;;4917719;29;20431;-74
2022/01/19 00:33:19;;;;;;;60.42;28.88;;;;;;;;;;4937282;29;20435;-75
2022/01/19 00:35:45;;;;;;;57.00;28.48;;;;;;;;;;4925987;29;20538;-76
2022/01/19 00:38:11;;;;;;;59.33;29.35;;;;;;;;;;4946428;28;20459;-76
2022/01/19 00:40:39;;;;;;;64.88;31.60;;;4.80;99.90;;;;;;4942138;29;20442;-75
2022/01/19 00:43:05;;;;;;;69.18;31.48;;;;;;;;;;4940011;29;20423;-75
2022/01/19 00:45:31;;;;;;;72.18;34.40;;;;;;;;;;4920708;29;20443;-75
2022/01/19 00:47:58;;;;;;;71.30;34.80;;;;;;;;;;4915859;29;20433;-75
2022/01/19 00:50:25;;;;;;;75.28;35.05;;;;;;;;;;4919077;29;20429;-74
2022/01/19 00:52:52;;;;;;;71.00;32.67;;;;;;;;;;4917935;29;20435;-75
2022/01/19 00:55:19;;;;;;;78.55;34.38;;;;;;;;;;4924905;29;20963;-75
2022/01/19 00:57:45;;;;;;;72.47;33.00;;;;;;;;;;4922306;29;20447;-75
2022/01/19 01:00:15;;;;;;;74.80;33.55;;;4.80;99.90;;;;;;4923816;29;20427;-75
2022/01/19 01:02:41;;;;;;;80.40;33.45;;;;;;;;;;4922632;29;20428;-75
2022/01/19 01:05:08;;;;;;;80.57;36.20;;;;;;;;;;4917157;29;20856;-75
2022/01/19 01:07:38;;;;;;;83.93;36.00;;;;;;;;;;4908297;29;20428;-75
2022/01/19 01:10:04;;;;;;;76.78;33.78;;;;;;;;;;4936500;29;20443;-75
2022/01/19 01:12:43;;;;;;;74.80;33.42;;;;;;;;;;4940244;29;20427;-74
2022/01/19 01:15:29;;;;;;;76.97;32.92;;;;;;;;;;4939088;29;20436;-76
2022/01/19 01:20:37;;;;;;;85.03;34.53;;;;;;;;;;4940165;29;20443;-74
2022/01/19 01:23:04;;;;;;;72.22;31.45;;;;;;;;;;4919514;29;20444;-74
2022/01/19 01:25:30;;;;;;;81.60;34.72;;;;;;;;;;4939904;29;20478;-74
2022/01/19 01:27:56;;;;;;;89.45;36.10;;;;;;;;;;4905075;29;20821;-74
2022/01/19 01:30:22;;;;;;;92.60;36.85;;;;;;;;;;4938929;29;20439;-74
2022/01/19 01:32:48;;;;;;;100.67;37.87;;;;;;;;;;4938251;29;20503;-75
2022/01/19 01:35:15;;;;;;;91.88;37.97;;;;;;;;;;4939064;29;20443;-74
2022/01/19 01:37:41;;;;;;;96.25;38.35;;;;;;;;;;4935910;29;20455;-75
2022/01/19 01:40:09;;;;;;;93.63;38.60;;;;;;;;;;4919437;29;20448;-74
2022/01/19 01:42:35;;;;;;;96.20;39.00;;;;;;;;;;4940159;29;20435;-75
2022/01/19 01:45:02;;;;;;;93.13;37.78;;;;;;;;;;4920461;29;21026;-75
2022/01/19 01:47:30;;;;;;;101.38;37.70;;;;;;;;;;4938631;29;20433;-75
2022/01/19 01:55:11;;;;;;;93.07;38.78;;;;;;;;;;4937691;28;20429;-75
2022/01/19 01:57:37;;;;;;;94.03;36.87;;;;;;;;;;4938418;29;20535;-75
2022/01/19 02:00:04;;;;;;;89.25;36.10;;;;;;;;;;4924790;29;20444;-74
2022/01/19 02:02:30;;;;;;;92.10;35.80;;;;;;;;;;4938645;29;20462;-74
2022/01/19 02:04:56;;;;;;;76.15;32.72;;;;;;;;;;4938855;29;20442;-75
2022/01/19 02:07:34;;;;;;;80.80;32.78;;;;;;;;;;4955147;28;20440;-74
2022/01/19 02:10:04;;;;;;;84.57;36.30;;;;;;;;;;4932060;28;20433;-74
2022/01/19 02:23:39;;;;;;;88.10;36.47;;;;;;;;;;4923272;29;20439;-75
2022/01/19 02:26:12;;;;;;;81.05;34.90;;;;;;;;;;4919178;29;20507;-75
2022/01/19 02:29:03;;;;;;;91.15;35.53;;;;;;;;;;4953526;28;20471;-74
2022/01/19 02:42:26;;;;;;;131.73;45.17;;;;;;;;;;5118403;27;20960;-74
2022/01/19 02:49:49;;;;;;;125.03;43.05;;;;;;;;;;5085751;28;20433;-74
2022/01/19 02:52:16;;;;;;;127.03;44.70;;;;;;;;;;5089378;28;20444;-74
2022/01/19 02:54:42;;;;;;;140.55;44.88;;;;;;;;;;5082012;28;20415;-75
2022/01/19 02:57:11;;;;;;;134.27;43.58;;;;;;;;;;5061423;28;20422;-74
2022/01/19 03:00:10;;;;;;;135.55;43.53;;;;;;;;;;5068006;28;20902;-74
2022/01/19 03:10:40;;;;;;;129.25;41.42;;;;;;;;;;5078685;28;20442;-74
2022/01/19 03:13:07;;;;;;;140.88;41.67;;;;;;;;;;5076668;28;20427;-74
2022/01/19 03:15:33;;;;;;;142.47;41.37;;;;;;;;;;5084127;28;20423;-74
2022/01/19 03:18:00;;;;;;;120.53;36.55;;;;;;;;;;5068728;28;20971;-75
2022/01/19 03:20:27;;;;;;;94.82;31.52;;;;;;;;;;5059664;28;20434;-75
2022/01/19 03:25:22;;;;;;;103.25;33.42;;;;;;;;;;5084122;28;20427;-76
2022/01/19 03:27:49;;;;;;;110.22;36.22;;;;;;;;;;5083794;28;20465;-74
2022/01/19 03:30:16;;;;;;;124.85;36.38;;;;;;;;;;5063861;28;20748;-75
2022/01/19 03:32:42;;;;;;;125.75;35.65;;;;;;;;;;5068985;28;20860;-75
2022/01/19 03:35:10;;;;;;;141.85;38.38;;;;;;;;;;5088710;28;20425;-75
2022/01/19 03:37:37;;;;;;;141.18;39.33;;;;;;;;;;5099256;28;20413;-75
2022/01/19 03:40:07;;;;;;;112.93;36.42;;;4.30;99.90;;;;;;5100775;28;20425;-75
2022/01/19 03:42:34;;;;;;;117.68;37.58;;;;;;;;;;5084659;28;20426;-75
2022/01/19 03:45:00;;;;;;;120.72;37.45;;;;;;;;;;5076076;28;20761;-76
2022/01/19 03:47:27;;;;;;;122.65;38.65;;;;;;;;;;5074488;28;20416;-76
2022/01/19 03:49:53;;;;;;;112.10;38.17;;;;;;;;;;5090835;28;20419;-75
2022/01/19 03:52:20;;;;;;;103.87;36.00;;;;;;;;;;5079707;28;20629;-75
2022/01/19 03:54:46;;;;;;;96.70;34.85;;;;;;;;;;5092273;28;20401;-75
2022/01/19 03:57:12;;;;;;;93.80;34.67;;;;;;;;;;5080224;28;20404;-75
2022/01/19 03:59:39;;;;;;;97.03;35.58;;;;;;;;;;5071518;28;20414;-76
2022/01/19 04:02:06;;;;;;;105.85;36.38;;;;;;;;;;5089420;28;20429;-75
2022/01/19 04:09:34;;;;;;;90.05;35.55;;;;;;;;;;5084430;28;20421;-75
2022/01/19 04:12:01;;;;;;;91.10;34.60;;;;;;;;;;5115950;27;20421;-75
2022/01/19 04:14:27;;;;;;;89.17;34.63;;;;;;;;;;5089314;28;20830;-75
2022/01/19 04:16:53;;;;;;;77.68;33.50;;;;;;;;;;5088072;28;20445;-75
2022/01/19 04:21:45;;;;;;;76.18;33.47;;;;;;;;;;5088087;28;20485;-75
2022/01/19 04:24:11;;;;;;;83.63;33.58;;;;;;;;;;5084456;28;20410;-75
2022/01/19 04:26:37;;;;;;;85.32;34.75;;;;;;;;;;5089487;28;20936;-75
2022/01/19 04:29:03;;;;;;;93.22;35.78;;;;;;;;;;5093839;28;21002;-76
2022/01/19 04:31:30;;;;;;;90.22;36.03;;;;;;;;;;5085415;28;20420;-76
2022/01/19 04:34:03;;;;;;;91.78;35.85;;;;;;;;;;5089326;28;20896;-75
2022/01/19 04:36:48;;;;;;;89.13;35.75;;;;;;;;;;5071964;28;20743;-75
2022/01/19 05:04:04;;;;;;;66.10;31.77;;;;;;;;;;5083848;28;20413;-75
2022/01/19 05:06:32;;;;;;;74.43;32.55;;;;;;;;;;5078245;28;20412;-76
2022/01/19 05:09:06;;;;;;;73.40;32.30;;;;;;;;;;5062993;28;20835;-76
2022/01/19 05:14:17;;;;;;;74.95;33.70;;;;;;;;;;5070819;28;20515;-75
2022/01/19 05:16:43;;;;;;;86.35;35.40;;;;;;;;;;5088421;28;20406;-75
2022/01/19 05:19:09;;;;;;;78.22;33.83;;;;;;;;;;5085839;28;20818;-75
2022/01/19 05:21:35;;;;;;;72.65;33.60;;;;;;;;;;5086678;28;20416;-76
2022/01/19 05:24:04;;;;;;;81.70;34.00;;;;;;;;;;5085097;28;20409;-75
2022/01/19 05:26:31;;;;;;;81.63;35.65;;;;;;;;;;5055914;28;20889;-76
2022/01/19 05:28:58;;;;;;;75.68;33.90;;;;;;;;;;5070258;28;20406;-76
2022/01/19 05:31:24;;;;;;;78.68;35.10;;;;;;;;;;5083778;28;20450;-76
2022/01/19 05:33:50;;;;;;;82.03;36.50;;;;;;;;;;5071413;28;20426;-76
2022/01/19 05:36:16;;;;;;;78.05;35.47;;;;;;;;;;5064104;28;20841;-77
2022/01/19 05:38:42;;;;;;;79.25;35.40;;;;;;;;;;5055189;28;20406;-77
2022/01/19 05:41:09;;;;;;;75.60;33.92;;;;;;;;;;5088037;28;20918;-76
2022/01/19 05:43:35;;;;;;;79.38;33.85;;;;;;;;;;5053194;28;20485;-76
2022/01/19 05:46:01;;;;;;;71.63;32.80;;;;;;;;;;5087419;28;20929;-77
2022/01/19 05:48:27;;;;;;;92.28;38.58;;;;;;;;;;5088156;28;20905;-77
2022/01/19 05:50:53;;;;;;;75.60;33.70;;;;;;;;;;5068794;28;20414;-76
2022/01/19 05:53:19;;;;;;;73.70;34.75;;;;;;;;;;5084441;28;20508;-76
2022/01/19 05:55:45;;;;;;;74.57;33.25;;;;;;;;;;5069934;28;20417;-77
2022/01/19 05:58:11;;;;;;;72.47;33.72;;;;;;;;;;5087771;28;20416;-76
2022/01/19 06:00:38;;;;;;;69.32;34.13;;;;;;;;;;5091342;28;20414;-76
2022/01/19 06:03:04;;;;;;;74.50;34.65;;;;;;;;;;5084553;28;20449;-76
2022/01/19 06:05:31;;;;;;;86.93;36.85;;;;;;;;;;5085163;28;20422;-77
2022/01/19 06:08:12;;;;;;;197.43;44.55;;;;;;;;;;5068893;28;20417;-76
2022/01/19 06:10:44;;;;;;;75.25;36.08;;;;;;;;;;5076203;28;20501;-77
2022/01/19 06:13:15;;;;;;;75.78;35.30;;;;;;;;;;5071222;28;20479;-77
2022/01/19 06:15:41;;;;;;;86.63;35.15;;;;;;;;;;5086403;28;20418;-77
2022/01/19 06:18:08;;;;;;;71.80;33.92;;;;;;;;;;5070507;28;20421;-78
2022/01/19 06:20:34;;;;;;;68.82;33.60;;;;;;;;;;5069002;28;20414;-78
2022/01/19 06:23:01;;;;;;;67.95;33.90;;;;;;;;;;5076057;28;20417;-79
2022/01/19 06:25:27;;;;;;;133.60;37.72;;;;;;;;;;5068677;28;20432;-78
2022/01/19 06:27:53;;;;;;;206.68;44.25;;;;;;;;;;5095767;27;20496;-78
2022/01/19 06:30:19;;;;;;;179.52;43.88;;;;;;;;;;5068457;28;20785;-78
2022/01/19 06:32:45;;;;;;;73.20;34.73;;;;;;;;;;5084598;28;20426;-77
2022/01/19 06:35:11;;;;;;;90.70;34.97;;;;;;;;;;5081168;28;20410;-79
2022/01/19 06:37:37;;;;;;;133.07;39.77;;;;;;;;;;5090117;28;20415;-79
2022/01/19 06:40:04;;;;;;;152.82;40.42;;;;;;;;;;5066544;28;20426;-77
2022/01/19 06:42:30;;;;;;;79.53;34.85;;;;;;;;;;5073073;28;20422;-79
2022/01/19 06:44:57;;;;;;;89.32;35.55;;;;;;;;;;5091653;28;20421;-78
2022/01/19 06:47:23;;;;;;;92.35;34.78;;;;;;;;;;5088141;28;20421;-78
2022/01/19 06:49:49;;;;;;;87.80;36.35;;;;;;;;;;5085247;28;20421;-78
2022/01/19 06:52:18;;;;;;;86.07;35.85;;;;;;;;;;5051415;28;20417;-77
2022/01/19 06:54:44;;;;;;;71.95;34.92;;;;;;;;;;5070249;28;20494;-77
2022/01/19 06:57:10;;;;;;;72.88;36.10;;;;;;;;;;5063434;28;20454;-77
2022/01/19 06:59:36;;;;;;;70.93;33.90;;;;;;;;;;5064741;28;20473;-78
2022/01/19 07:02:02;;;;;;;79.43;34.83;;;;;;;;;;5086501;28;20492;-78
2022/01/19 07:04:29;;;;;;;112.85;36.60;;;;;;;;;;5076675;28;20467;-78
2022/01/19 07:06:55;;;;;;;66.72;32.92;;;;;;;;;;5091609;28;20822;-77
2022/01/19 07:09:21;;;;;;;71.13;34.75;;;;;;;;;;5080018;28;21209;-78
2022/01/19 07:11:47;;;;;;;75.72;35.38;;;;;;;;;;5094263;28;20410;-77
2022/01/19 07:14:13;;;;;;;70.97;34.93;;;;;;;;;;5050738;28;20935;-75
2022/01/19 07:16:40;;;;;;;65.28;33.42;;;;;;;;;;5087006;28;20418;-75
2022/01/19 07:19:06;;;;;;;70.03;33.70;;;;;;;;;;5096790;28;20448;-76
2022/01/19 07:21:32;;;;;;;72.13;34.10;;;;;;;;;;5091291;28;20927;-75
2022/01/19 07:23:58;;;;;;;75.57;33.45;;;;;;;;;;5076392;28;20451;-76
2022/01/19 07:26:24;;;;;;;68.32;34.38;;;;;;;;;;5072933;28;20500;-77
2022/01/19 07:28:50;;;;;;;65.70;32.80;;;;;;;;;;5073574;28;20470;-76
2022/01/19 07:31:16;;;;;;;68.63;34.42;;;;;;;;;;5088122;28;20418;-76
2022/01/19 07:33:42;;;;;;;67.13;33.20;;;;;;;;;;5096287;27;20504;-77
2022/01/19 07:36:09;;;;;;;64.57;32.58;;;;;;;;;;5084718;28;20406;-77
2022/01/19 07:38:35;;;;;;;63.92;32.65;;;;;;;;;;5070309;28;20421;-77
2022/01/19 07:41:01;;;;;;;68.20;33.22;;;;;;;;;;5091920;28;21222;-76
2022/01/19 07:43:27;;;;;;;92.30;35.50;;;;;;;;;;5071765;28;20427;-76
2022/01/19 07:45:53;;;;;;;68.25;33.60;;;;;;;;;;5085159;28;20418;-77
2022/01/19 07:48:19;;;;;;;68.63;33.53;;;;;;;;;;5087976;28;20828;-74
2022/01/19 07:50:45;;;;;;;67.75;34.13;;;;;;;;;;5073945;28;20427;-74
2022/01/19 07:53:11;;;;;;;67.15;32.83;;;;;;;;;;5071245;28;20426;-75
2022/01/19 07:55:38;;;;;;;77.03;34.38;;;;;;;;;;5088901;28;20409;-75
2022/01/19 07:58:04;;;;;;;75.10;35.45;;;;;;;;;;5076161;28;20467;-75
2022/01/19 08:00:33;;;;;;;78.15;35.17;;;;;;;;;;5083813;28;20417;-76
2022/01/19 08:03:01;;;;;;;69.32;33.42;;;;;;;;;;5076195;28;20420;-75
2022/01/19 08:05:27;;;;;;;71.87;34.13;;;;;;;;;;5090708;28;20491;-75
2022/01/19 08:07:54;;;;;;;73.40;34.90;;;;;;;;;;5072143;28;20897;-75
2022/01/19 08:10:20;;;;;;;75.20;35.40;;;;;;;;;;5086576;28;20418;-75
2022/01/19 08:12:49;;;;;;;80.25;36.67;;;;;;;;;;5077034;28;20427;-75
2022/01/19 08:15:15;;;;;;;81.35;36.47;;;;;;;;;;5070531;28;20530;-75
2022/01/19 08:17:41;;;;;;;76.17;36.27;;;;;;;;;;5083383;28;20432;-76
2022/01/19 08:20:07;;;;;;;82.10;36.50;;;;;;;;;;5093673;28;21002;-75
2022/01/19 08:22:33;;;;;;;90.68;39.35;;;;;;;;;;5072016;28;20418;-76
2022/01/19 08:24:59;;;;;;;69.00;36.03;;;;;;;;;;5070060;28;20508;-75
2022/01/19 08:27:25;;;;;;;71.90;35.72;;;;;;;;;;5054704;28;20414;-75
2022/01/19 08:29:51;;;;;;;71.47;35.58;;;;;;;;;;5086512;28;20445;-75
2022/01/19 08:32:18;;;;;;;72.75;37.03;;;;;;;;;;5074711;28;20928;-76
2022/01/19 08:34:44;;;;;;;74.00;37.08;;;;;;;;;;5086544;28;20933;-75
2022/01/19 08:37:14;;;;;;;72.60;36.10;;;;;;;;;;5071147;28;20449;-76
2022/01/19 08:39:41;;;;;;;77.28;36.35;;;;;;;;;;5085227;28;20470;-76
2022/01/19 08:42:08;;;;;;;79.70;39.47;;;;;;;;;;5089040;28;20418;-76
2022/01/19 08:44:34;;;;;;;82.93;37.40;;;;;;;;;;5089934;28;20491;-76
2022/01/19 08:47:00;;;;;;;77.97;35.85;;;;;;;;;;5079201;28;20424;-76
2022/01/19 08:49:26;;;;;;;71.65;36.92;;;;;;;;;;5091479;28;20421;-76
2022/01/19 08:51:52;;;;;;;77.38;37.35;;;;;;;;;;5074767;28;20441;-77
2022/01/19 08:54:19;;;;;;;75.15;37.33;;;;;;;;;;5069871;28;20925;-77
2022/01/19 08:56:46;;;;;;;78.10;38.53;;;;;;;;;;5095222;28;20866;-76
2022/01/19 08:59:12;;;;;;;74.93;38.45;;;;;;;;;;5095513;28;20423;-76
2022/01/19 09:01:41;;;;;;;79.72;37.95;;;;;;;;;;5093282;28;20413;-76
2022/01/19 09:04:07;;;;;;;81.20;40.85;;;;;;;;;;5083507;28;20819;-76
2022/01/19 09:06:33;;;;;;;82.55;38.38;;;;;;;;;;5089378;28;20452;-76
2022/01/19 09:08:59;;;;;;;80.50;39.80;;;;;;;;;;5086900;28;20422;-75
2022/01/19 09:11:25;;;;;;;84.07;38.73;;;;;;;;;;5060281;28;20422;-75
2022/01/19 09:13:51;;;;;;;78.00;38.53;;;;;;;;;;5083304;28;21123;-76
2022/01/19 09:16:18;;;;;;;85.27;38.83;;;;;;;;;;5089315;28;20429;-76
2022/01/19 09:18:44;;;;;;;86.75;39.60;;;;;;;;;;5091675;28;20419;-76
2022/01/19 09:21:10;;;;;;;81.28;39.10;;;;;;;;;;5074740;28;20409;-75
2022/01/19 09:23:37;;;;;;;79.47;39.60;;;;;;;;;;5085734;28;20417;-76
2022/01/19 09:26:03;;;;;;;82.57;40.67;;;;;;;;;;5079540;28;20455;-77
2022/01/19 09:28:30;;;;;;;82.95;39.97;;;;;;;;;;5073416;28;20470;-77
2022/01/19 09:31:02;;;;;;;79.90;38.67;;;;;;;;;;5085817;28;20422;-77
2022/01/19 09:33:30;;;;;;;73.45;37.95;;;;;;;;;;5088880;28;20424;-76
2022/01/19 09:38:24;;;;;;;82.78;40.92;;;;;;;;;;5085722;28;20424;-76
2022/01/19 09:40:50;;;;;;;86.00;40.22;;;;;;;;;;5068937;28;20784;-74
2022/01/19 09:43:17;;;;;;;79.45;39.92;;;;;;;;;;5064945;28;20430;-76
2022/01/19 09:45:44;;;;;;;77.10;38.83;;;;;;;;;;5087647;28;20496;-77
2022/01/19 09:48:10;;;;;;;80.68;40.17;;;;;;;;;;5086491;28;20447;-77
2022/01/19 09:50:36;;;;;;;78.47;40.87;;;;;;;;;;5067587;28;20524;-77
2022/01/19 09:53:06;;;;;;;78.85;41.13;;;;;;;;;;5068647;28;20424;-77
2022/01/19 09:55:33;;;;;;;76.43;39.85;;;;;;;;;;5087284;28;20463;-76
2022/01/19 09:57:59;;;;;;;82.43;40.38;;;;;;;;;;5087909;28;20410;-76
2022/01/19 10:00:25;;;;;;;77.50;41.22;;;;;;;;;;5080941;28;20423;-77
2022/01/19 10:03:10;;;;;;;73.70;40.60;;;;;;;;;;5098012;28;20421;-77
2022/01/19 10:05:36;;;;;;;81.22;41.60;;;;;;;;;;5071010;28;20492;-76
2022/01/19 10:08:02;;;;;;;82.13;42.38;;;;;;;;;;5086161;28;20433;-77
2022/01/19 10:10:28;;;;;;;74.03;39.77;;;;;;;;;;5073490;28;20478;-77
2022/01/19 10:18:25;;;;;;;78.87;41.83;;;;;;;;;;5098692;28;20420;-77
2022/01/19 10:21:17;;;;;;;74.93;40.80;;;;;;;;;;5113087;27;21020;-79
2022/01/19 10:23:48;;;;;;;75.63;41.03;;;;;;;;;;5106436;27;21683;-77
2022/01/19 10:26:15;;;;;;;72.15;40.25;;;;;;;;;;5083241;28;20452;-77
2022/01/19 10:29:01;;;;;;;78.13;41.15;;;;;;;;;;5086720;28;20754;-76
2022/01/19 10:31:29;;;;;;;81.63;41.47;;;5.20;99.90;;;;;;5068148;28;20513;-77
2022/01/19 10:34:10;;;;;;;70.53;40.17;;;;;;;;;;5082420;28;20549;-77
2022/01/19 10:36:40;;;;;;;73.15;40.72;;;;;;;;;;5065699;28;20928;-77
2022/01/19 10:39:06;;;;;;;73.13;40.50;;;;;;;;;;5097519;28;20489;-78
2022/01/19 10:41:32;;;;;;;74.70;41.63;;;;;;;;;;5070250;28;20419;-77
2022/01/19 10:43:59;;;;;;;75.50;42.00;;;;;;;;;;5053538;28;20963;-77
2022/01/19 10:46:30;;;;;;;73.18;41.20;;;;;;;;;;5092224;28;20531;-77
2022/01/19 10:49:02;;;;;;;72.47;40.90;;;;;;;;;;5072152;28;20415;-76
2022/01/19 10:51:44;;;;;;;74.38;41.88;;;;;;;;;;5062838;28;20502;-77
2022/01/19 10:54:12;;;;;;;74.60;41.97;;;;;;;;;;5074526;28;20431;-76
2022/01/19 10:56:38;;;;;;;73.70;42.10;;;;;;;;;;5075138;28;20412;-77
2022/01/19 10:59:09;;;;;;;71.55;42.08;;;;;;;;;;5075325;28;20410;-76
2022/01/19 11:01:35;;;;;;;70.13;40.13;;;;;;;;;;5088368;28;20500;-75
2022/01/19 11:04:20;;;;;;;73.88;43.10;;;;;;;;;;5073225;28;20417;-77
2022/01/19 11:06:56;;;;;;;75.15;42.97;;;;;;;;;;5085727;28;20488;-77
2022/01/19 11:09:25;;;;;;;74.78;42.92;;;;;;;;;;5090849;28;20420;-76
2022/01/19 11:11:52;;;;;;;79.05;44.80;;;;;;;;;;5077557;28;20408;-76
2022/01/19 11:14:18;;;;;;;79.50;44.03;;;;;;;;;;5071958;28;20420;-76
2022/01/19 11:16:44;;;;;;;78.03;43.72;;;;;;;;;;5102968;27;20422;-76
2022/01/19 11:19:11;;;;;;;73.90;43.03;;;;;;;;;;5099285;28;20435;-77
2022/01/19 11:21:57;;;;;;;77.55;43.67;;;;;;;;;;5071628;28;20425;-77
2022/01/19 11:25:00;;;;;;;78.50;44.42;;;5.80;99.90;;;;;;5080814;28;20410;-77
2022/01/19 11:27:30;;;;;;;80.15;45.83;;;;;;;;;;5091494;28;20421;-76
2022/01/19 11:30:10;;;;;;;79.37;44.27;;;;;;;;;;5075575;28;20443;-77
2022/01/19 11:32:36;;;;;;;74.13;43.03;;;;;;;;;;5085159;28;20516;-76
2022/01/19 11:35:03;;;;;;;79.85;45.40;;;;;;;;;;5057018;28;20592;-76
2022/01/19 11:37:41;;;;;;;85.53;46.10;;;5.50;99.90;;;;;;5073197;28;20402;-77
2022/01/19 11:40:09;;;;;;;77.80;45.05;;;;;;;;;;5114764;27;20496;-77
2022/01/19 11:42:35;;;;;;;80.82;44.88;;;;;;;;;;5108151;28;20406;-76
2022/01/19 11:45:02;;;;;;;77.32;45.13;;;;;;;;;;5058888;28;20422;-77
2022/01/19 11:47:32;;;;;;;81.55;44.40;;;;;;;;;;5070768;28;20425;-76
2022/01/19 11:50:04;;;;;;;78.65;44.22;;;;;;;;;;5073455;28;20512;-76
2022/01/19 11:52:39;;;;;;;80.28;44.50;;;;;;;;;;5078940;28;20412;-77
2022/01/19 11:55:14;;;;;;;79.73;43.33;;;;;;;;;;5092436;28;20418;-76
2022/01/19 11:57:41;;;;;;;77.43;43.40;;;5.60;99.90;;;;;;5071957;28;20965;-76
2022/01/19 12:00:16;;;;;;;77.75;42.22;;;;;;;;;;5087570;28;20437;-78
2022/01/19 12:02:48;;;;;;;80.68;44.70;;;5.80;99.90;;;;;;5072283;28;20429;-77
2022/01/19 12:05:19;;;;;;;85.18;44.15;;;;;;;;;;5076606;28;20416;-77
2022/01/19 12:07:48;;;;;;;85.53;43.97;;;;;;;;;;5090262;28;20506;-77
2022/01/19 12:10:36;;;;;;;83.30;44.22;;;;;;;;;;5069804;28;20405;-77
2022/01/19 12:13:35;;;;;;;75.15;41.25;;;5.90;99.90;;;;;;5074484;28;20416;-76
2022/01/19 12:16:11;;;;;;;75.85;42.03;;;;;;;;;;5096462;28;20426;-75
2022/01/19 12:18:51;;;;;;;77.47;41.20;;;;;;;;;;5088697;28;20414;-75
2022/01/19 12:21:17;;;;;;;77.38;42.08;;;;;;;;;;5091785;28;20421;-77
2022/01/19 12:23:44;;;;;;;80.03;41.63;;;;;;;;;;5071833;28;20428;-78
2022/01/19 12:26:10;;;;;;;84.00;41.80;;;;;;;;;;5080072;28;20420;-77
2022/01/19 12:28:41;;;;;;;81.95;42.53;;;;;;;;;;5072853;28;20782;-78
2022/01/19 12:31:25;;;;;;;81.15;42.60;;;;;;;;;;5084550;28;20414;-77
2022/01/19 12:34:09;;;;;;;83.32;43.63;;;;;;;;;;5096028;28;20539;-75
2022/01/19 12:36:42;;;;;;;79.05;41.83;;;;;;;;;;5081387;28;20431;-76
2022/01/19 12:39:29;;;;;;;77.65;42.88;;;;;;;;;;5096110;28;20928;-76
2022/01/19 12:42:03;;;;;;;76.53;42.78;;;;;;;;;;5066253;28;20417;-76
2022/01/19 12:44:35;;;;;;;80.55;44.33;;;;;;;;;;5062105;28;20418;-77
2022/01/19 12:47:20;;;;;;;88.60;43.60;;;;;;;;;;5111203;27;20501;-77
2022/01/19 12:49:50;;;;;;;78.35;40.80;;;;;;;;;;5075795;28;20425;-78
2022/01/19 12:52:16;;;;;;;79.32;42.28;;;;;;;;;;5081705;28;20752;-77
2022/01/19 12:54:43;;;;;;;77.93;43.42;;;;;;;;;;5080289;28;20412;-78
2022/01/19 12:57:15;;;;;;;77.50;41.35;;;;;;;;;;5066701;28;20456;-76
2022/01/19 12:59:44;;;;;;;74.97;41.63;;;;;;;;;;5086164;28;20413;-76
2022/01/19 13:02:14;;;;;;;69.30;40.10;;;;;;;;;;5087615;28;20425;-77
2022/01/19 13:04:41;;;;;;;77.13;40.97;;;;;;;;;;5086357;28;20531;-78
2022/01/19 13:07:26;;;;;;;74.97;41.72;;;;;;;;;;5066991;28;20453;-77
2022/01/19 13:12:41;;;;;;;70.78;39.33;;;;;;;;;;5084830;28;20460;-78
2022/01/19 13:15:08;;;;;;;72.35;39.85;;;;;;;;;;5082875;28;20792;-77
2022/01/19 13:17:41;;;;;;;68.90;39.63;;;;;;;;;;5089183;28;20513;-77
2022/01/19 13:20:08;;;;;;;66.85;38.38;;;;;;;;;;5085318;28;20415;-77
2022/01/19 13:22:43;;;;;;;64.32;36.78;;;;;;;;;;5066345;28;20430;-77
2022/01/19 13:25:22;;;;;;;68.63;37.50;;;;;;;;;;5086691;28;20436;-78
2022/01/19 13:27:49;;;;;;;65.63;37.87;;;;;;;;;;5069797;28;20422;-76
2022/01/19 13:30:16;;;;;;;65.50;36.40;;;;;;;;;;5070592;28;20422;-77
2022/01/19 13:32:42;;;;;;;69.22;37.58;;;;;;;;;;5105560;27;20422;-78
2022/01/19 13:35:10;;;;;;;66.30;36.78;;;;;;;;;;5052351;28;20501;-78
2022/01/19 13:37:48;;;;;;;67.93;37.63;;;;;;;;;;5087120;28;20431;-78
2022/01/19 13:40:14;;;;;;;70.57;38.33;;;;;;;;;;5087335;28;20633;-78
2022/01/19 13:42:45;;;;;;;63.53;37.33;;;;;;;;;;5081164;28;20512;-79
2022/01/19 13:45:25;;;;;;;69.55;36.38;;;;;;;;;;5084918;28;20866;-78
2022/01/19 13:48:09;;;;;;;68.87;38.90;;;;;;;;;;5069024;28;20414;-79
2022/01/19 13:50:36;;;;;;;74.18;39.03;;;;;;;;;;5088569;28;20895;-79
2022/01/19 13:53:03;;;;;;;72.20;37.72;;;;;;;;;;5082128;28;20418;-79
2022/01/19 13:55:30;;;;;;;73.80;40.28;;;;;;;;;;5083705;28;20430;-79
2022/01/19 13:58:05;;;;;;;73.55;38.45;;;;;;;;;;5086601;28;20421;-79
2022/01/19 14:00:31;;;;;;;69.45;36.85;;;;;;;;;;5082543;28;20594;-77
2022/01/19 14:03:00;;;;;;;67.97;37.03;;;;;;;;;;5084968;28;20425;-77
2022/01/19 14:05:37;;;;;;;71.50;35.67;;;;;;;;;;5071192;28;20440;-77
2022/01/19 14:08:03;;;;;;;70.55;35.45;;;;;;;;;;5063306;28;20423;-77
2022/01/19 14:10:48;;;;;;;68.63;34.03;;;;;;;;;;5079933;28;20949;-76
2022/01/19 14:13:41;;;;;;;66.63;32.85;;;;;;;;;;5089618;28;20768;-77
2022/01/19 14:16:22;;;;;;;66.57;33.78;;;;;;;;;;5094211;28;20418;-74
2022/01/19 14:19:06;;;;;;;60.75;32.08;;;;;;;;;;5089935;28;20413;-76
2022/01/19 14:21:33;;;;;;;62.40;32.00;;;;;;;;;;5091859;28;20421;-76
2022/01/19 14:23:59;;;;;;;71.53;31.70;;;;;;;;;;5080623;28;20484;-76
2022/01/19 14:26:26;;;;;;;65.05;32.72;;;;;;;;;;5088247;28;20489;-76
2022/01/19 14:29:11;;;;;;;77.07;34.30;;;;;;;;;;5083074;28;20974;-78
2022/01/19 14:31:56;;;;;;;67.85;32.78;;;;;;;;;;5076112;28;20658;-77
2022/01/19 14:34:42;;;;;;;67.10;32.20;;;;;;;;;;5061803;28;20934;-77
2022/01/19 14:37:09;;;;;;;65.22;32.97;;;;;;;;;;5087468;28;20410;-75
2022/01/19 14:40:11;;;;;;;69.43;32.67;;;5.70;99.90;;;;;;5080271;28;20589;-75
2022/01/19 14:42:38;;;;;;;73.57;33.35;;;;;;;;;;5061387;28;20762;-76
2022/01/19 14:45:27;;;;;;;67.63;30.60;;;;;;;;;;5078518;28;20422;-76
2022/01/19 14:47:54;;;;;;;63.53;31.08;;;;;;;;;;5070223;28;20490;-76
2022/01/19 14:50:20;;;;;;;65.68;31.25;;;;;;;;;;5090915;28;21169;-76
2022/01/19 14:52:49;;;;;;;65.35;32.20;;;;;;;;;;5079766;28;20426;-75
2022/01/19 14:55:28;;;;;;;68.10;32.05;;;;;;;;;;5064794;28;20419;-76
2022/01/19 14:57:54;;;;;;;72.07;32.28;;;;;;;;;;5086481;28;20417;-76
2022/01/19 15:00:21;;;;;;;65.25;30.52;;;;;;;;;;5065208;28;20988;-75
2022/01/19 15:02:57;;;;;;;63.95;31.42;;;;;;;;;;5082442;28;20422;-76
2022/01/19 15:05:27;;;;;;;69.07;31.58;;;;;;;;;;5077794;28;20467;-76
2022/01/19 15:07:53;;;;;;;67.88;30.88;;;;;;;;;;5081147;28;20507;-76
2022/01/19 15:10:20;;;;;;;68.47;29.08;;;;;;;;;;5073907;28;20448;-75
2022/01/19 15:12:51;;;;;;;67.30;30.55;;;;;;;;;;5080752;28;20425;-75
2022/01/19 15:15:18;;;;;;;58.72;25.95;;;;;;;;;;5083492;28;20401;-76
2022/01/19 15:17:44;;;;;;;63.28;27.30;;;;;;;;;;5082958;28;20407;-76
2022/01/19 15:20:10;;;;;;;48.92;23.88;;;;;;;;;;5076202;28;20420;-76
2022/01/19 15:22:37;;;;;;;46.42;22.52;;;;;;;;;;5081727;28;20510;-75
2022/01/19 15:25:03;;;;;;;44.92;21.35;;;;;;;;;;5065733;28;20437;-74
2022/01/19 15:27:29;;;;;;;36.28;18.73;;;;;;;;;;5081748;28;20462;-74
2022/01/19 15:29:56;;;;;;;39.00;18.97;;;;;;;;;;5082655;28;20441;-75
2022/01/19 15:32:22;;;;;;;39.72;19.38;;;;;;;;;;5069609;28;21000;-75
2022/01/19 15:34:48;;;;;;;41.25;19.13;;;;;;;;;;5065318;28;20433;-74
2022/01/19 15:37:14;;;;;;;33.17;17.30;;;;;;;;;;5065742;28;20580;-74
2022/01/19 15:39:46;;;;;;;36.28;18.02;;;;;;;;;;5074437;28;20506;-74
2022/01/19 15:42:13;;;;;;;32.88;17.00;;;;;;;;;;5074118;28;20418;-74
2022/01/19 15:44:39;;;;;;;38.47;18.88;;;;;;;;;;5083559;28;20425;-74
2022/01/19 15:47:05;;;;;;;38.58;18.92;;;;;;;;;;5066128;28;20467;-73
2022/01/19 15:49:31;;;;;;;36.93;17.60;;;;;;;;;;5087241;28;20497;-73
2022/01/19 15:51:57;;;;;;;39.67;18.90;;;;;;;;;;5078700;28;20411;-73
2022/01/19 15:54:23;;;;;;;40.97;18.90;;;;;;;;;;5063468;28;20991;-73